sensor_id;sensor_type;location;lat;lon;timestamp;P1;durP1;ratioP1;P2;durP2;ratioP2
21492;SDS011;10908;50.690;4.400;2024-01-10T00:01:23;12.65;;;5.40;;
21492;SDS011;10908;50.690;4.400;2024-01-10T00:03:52;13.30;;;4.85;;
21492;SDS011;10908;50.690;4.400;2024-01-10T00:06:18;13.80;;;5.35;;
21492;SDS011;10908;50.690;4.400;2024-01-10T00:08:44;15.88;;;5.63;;
21492;SDS011;10908;50.690;4.400;2024-01-10T00:11:10;12.90;;;5.35;;
21492;SDS011;10908;50.690;4.400;2024-01-10T00:13:35;13.45;;;5.53;;
21492;SDS011;10908;50.690;4.400;2024-01-10T00:16:01;15.27;;;6.05;;
21492;SDS011;10908;50.690;4.400;2024-01-10T00:18:26;13.20;;;5.38;;
21492;SDS011;10908;50.690;4.400;2024-01-10T00:20:52;13.32;;;4.80;;
21492;SDS011;10908;50.690;4.400;2024-01-10T00:23:19;13.75;;;5.13;;
21492;SDS011;10908;50.690;4.400;2024-01-10T00:25:47;15.15;;;5.75;;
21492;SDS011;10908;50.690;4.400;2024-01-10T00:28:13;13.95;;;5.25;;
21492;SDS011;10908;50.690;4.400;2024-01-10T00:30:41;13.82;;;5.40;;
21492;SDS011;10908;50.690;4.400;2024-01-10T00:33:07;12.88;;;5.43;;
21492;SDS011;10908;50.690;4.400;2024-01-10T00:35:33;13.70;;;4.75;;
21492;SDS011;10908;50.690;4.400;2024-01-10T00:37:59;14.45;;;5.22;;
21492;SDS011;10908;50.690;4.400;2024-01-10T00:40:24;12.25;;;4.50;;
21492;SDS011;10908;50.690;4.400;2024-01-10T00:42:50;13.93;;;5.45;;
21492;SDS011;10908;50.690;4.400;2024-01-10T00:45:16;15.32;;;5.18;;
21492;SDS011;10908;50.690;4.400;2024-01-10T00:47:42;13.00;;;5.38;;
21492;SDS011;10908;50.690;4.400;2024-01-10T00:50:08;15.52;;;5.13;;
21492;SDS011;10908;50.690;4.400;2024-01-10T00:52:34;13.27;;;5.00;;
21492;SDS011;10908;50.690;4.400;2024-01-10T00:55:00;13.27;;;5.43;;
21492;SDS011;10908;50.690;4.400;2024-01-10T00:57:26;11.35;;;4.85;;
21492;SDS011;10908;50.690;4.400;2024-01-10T00:59:51;11.98;;;5.30;;
21492;SDS011;10908;50.690;4.400;2024-01-10T01:02:17;14.00;;;5.13;;
21492;SDS011;10908;50.690;4.400;2024-01-10T01:04:43;13.57;;;5.18;;
21492;SDS011;10908;50.690;4.400;2024-01-10T01:07:09;13.10;;;5.03;;
21492;SDS011;10908;50.690;4.400;2024-01-10T01:09:34;11.57;;;5.03;;
21492;SDS011;10908;50.690;4.400;2024-01-10T01:12:00;11.90;;;4.93;;
21492;SDS011;10908;50.690;4.400;2024-01-10T01:14:26;13.85;;;5.07;;
21492;SDS011;10908;50.690;4.400;2024-01-10T01:16:51;13.35;;;5.07;;
21492;SDS011;10908;50.690;4.400;2024-01-10T01:19:17;12.13;;;4.45;;
21492;SDS011;10908;50.690;4.400;2024-01-10T01:21:43;12.80;;;5.30;;
21492;SDS011;10908;50.690;4.400;2024-01-10T01:24:08;12.50;;;4.82;;
21492;SDS011;10908;50.690;4.400;2024-01-10T01:26:34;14.93;;;5.55;;
21492;SDS011;10908;50.690;4.400;2024-01-10T01:29:00;13.27;;;5.15;;
21492;SDS011;10908;50.690;4.400;2024-01-10T01:31:25;13.02;;;4.68;;
21492;SDS011;10908;50.690;4.400;2024-01-10T01:33:51;13.85;;;4.97;;
21492;SDS011;10908;50.690;4.400;2024-01-10T01:36:17;13.23;;;5.15;;
21492;SDS011;10908;50.690;4.400;2024-01-10T01:38:43;14.80;;;5.50;;
21492;SDS011;10908;50.690;4.400;2024-01-10T01:41:09;13.55;;;5.13;;
21492;SDS011;10908;50.690;4.400;2024-01-10T01:43:34;12.25;;;5.18;;
21492;SDS011;10908;50.690;4.400;2024-01-10T01:46:00;14.73;;;5.65;;
21492;SDS011;10908;50.690;4.400;2024-01-10T01:48:27;13.98;;;5.35;;
21492;SDS011;10908;50.690;4.400;2024-01-10T01:50:57;13.20;;;5.10;;
21492;SDS011;10908;50.690;4.400;2024-01-10T01:53:27;11.48;;;4.57;;
21492;SDS011;10908;50.690;4.400;2024-01-10T01:55:56;12.02;;;5.03;;
21492;SDS011;10908;50.690;4.400;2024-01-10T01:58:23;13.52;;;5.32;;
21492;SDS011;10908;50.690;4.400;2024-01-10T02:00:49;12.68;;;5.18;;
21492;SDS011;10908;50.690;4.400;2024-01-10T02:03:16;14.25;;;5.55;;
21492;SDS011;10908;50.690;4.400;2024-01-10T02:05:42;13.65;;;5.65;;
21492;SDS011;10908;50.690;4.400;2024-01-10T02:08:08;13.88;;;5.65;;
21492;SDS011;10908;50.690;4.400;2024-01-10T02:10:34;16.20;;;5.80;;
21492;SDS011;10908;50.690;4.400;2024-01-10T02:13:00;12.82;;;5.35;;
21492;SDS011;10908;50.690;4.400;2024-01-10T02:15:26;15.20;;;5.75;;
21492;SDS011;10908;50.690;4.400;2024-01-10T02:17:52;13.60;;;5.50;;
21492;SDS011;10908;50.690;4.400;2024-01-10T02:20:17;14.05;;;5.63;;
21492;SDS011;10908;50.690;4.400;2024-01-10T02:22:43;14.60;;;5.80;;
21492;SDS011;10908;50.690;4.400;2024-01-10T02:25:13;14.23;;;5.82;;
21492;SDS011;10908;50.690;4.400;2024-01-10T02:27:42;14.27;;;5.85;;
21492;SDS011;10908;50.690;4.400;2024-01-10T02:30:08;13.70;;;5.78;;
21492;SDS011;10908;50.690;4.400;2024-01-10T02:32:35;13.77;;;5.63;;
21492;SDS011;10908;50.690;4.400;2024-01-10T02:35:01;12.68;;;5.93;;
21492;SDS011;10908;50.690;4.400;2024-01-10T02:37:27;14.77;;;5.47;;
21492;SDS011;10908;50.690;4.400;2024-01-10T02:39:53;14.98;;;6.30;;
21492;SDS011;10908;50.690;4.400;2024-01-10T02:42:18;14.82;;;5.72;;
21492;SDS011;10908;50.690;4.400;2024-01-10T02:44:44;13.73;;;5.45;;
21492;SDS011;10908;50.690;4.400;2024-01-10T02:47:12;19.17;;;6.18;;
21492;SDS011;10908;50.690;4.400;2024-01-10T02:49:38;14.55;;;5.88;;
21492;SDS011;10908;50.690;4.400;2024-01-10T02:52:04;15.80;;;5.43;;
21492;SDS011;10908;50.690;4.400;2024-01-10T02:54:30;16.63;;;5.80;;
21492;SDS011;10908;50.690;4.400;2024-01-10T02:56:56;16.15;;;5.90;;
21492;SDS011;10908;50.690;4.400;2024-01-10T02:59:21;16.08;;;5.60;;
21492;SDS011;10908;50.690;4.400;2024-01-10T03:01:47;13.43;;;5.82;;
21492;SDS011;10908;50.690;4.400;2024-01-10T03:04:13;17.52;;;6.45;;
21492;SDS011;10908;50.690;4.400;2024-01-10T03:06:39;16.77;;;5.78;;
21492;SDS011;10908;50.690;4.400;2024-01-10T03:09:05;13.85;;;5.47;;
21492;SDS011;10908;50.690;4.400;2024-01-10T03:11:32;18.20;;;5.70;;
21492;SDS011;10908;50.690;4.400;2024-01-10T03:14:01;15.80;;;5.72;;
21492;SDS011;10908;50.690;4.400;2024-01-10T03:16:28;14.35;;;6.00;;
21492;SDS011;10908;50.690;4.400;2024-01-10T03:18:55;15.32;;;6.15;;
21492;SDS011;10908;50.690;4.400;2024-01-10T03:21:20;17.40;;;5.47;;
21492;SDS011;10908;50.690;4.400;2024-01-10T03:23:50;16.02;;;6.22;;
21492;SDS011;10908;50.690;4.400;2024-01-10T03:26:16;14.95;;;5.57;;
21492;SDS011;10908;50.690;4.400;2024-01-10T03:28:42;12.88;;;5.60;;
21492;SDS011;10908;50.690;4.400;2024-01-10T03:31:07;14.10;;;5.55;;
21492;SDS011;10908;50.690;4.400;2024-01-10T03:33:36;15.48;;;6.25;;
21492;SDS011;10908;50.690;4.400;2024-01-10T03:36:01;14.00;;;5.78;;
21492;SDS011;10908;50.690;4.400;2024-01-10T03:38:27;14.90;;;6.28;;
21492;SDS011;10908;50.690;4.400;2024-01-10T03:40:53;18.40;;;6.53;;
21492;SDS011;10908;50.690;4.400;2024-01-10T03:43:19;15.48;;;6.25;;
21492;SDS011;10908;50.690;4.400;2024-01-10T03:45:44;16.70;;;6.38;;
21492;SDS011;10908;50.690;4.400;2024-01-10T03:48:10;13.48;;;5.53;;
21492;SDS011;10908;50.690;4.400;2024-01-10T03:50:36;16.95;;;6.15;;
21492;SDS011;10908;50.690;4.400;2024-01-10T03:53:01;13.25;;;5.75;;
21492;SDS011;10908;50.690;4.400;2024-01-10T03:55:27;12.18;;;5.68;;
21492;SDS011;10908;50.690;4.400;2024-01-10T03:57:53;14.88;;;6.15;;
21492;SDS011;10908;50.690;4.400;2024-01-10T04:00:18;15.43;;;6.57;;
21492;SDS011;10908;50.690;4.400;2024-01-10T04:02:45;16.17;;;6.13;;
21492;SDS011;10908;50.690;4.400;2024-01-10T04:05:10;16.75;;;6.47;;
21492;SDS011;10908;50.690;4.400;2024-01-10T04:07:38;19.70;;;6.75;;
21492;SDS011;10908;50.690;4.400;2024-01-10T04:10:06;17.00;;;6.50;;
21492;SDS011;10908;50.690;4.400;2024-01-10T04:12:35;13.77;;;6.75;;
21492;SDS011;10908;50.690;4.400;2024-01-10T04:15:02;17.45;;;6.63;;
21492;SDS011;10908;50.690;4.400;2024-01-10T04:17:27;13.55;;;6.50;;
21492;SDS011;10908;50.690;4.400;2024-01-10T04:19:53;14.57;;;5.90;;
21492;SDS011;10908;50.690;4.400;2024-01-10T04:22:19;18.88;;;6.25;;
21492;SDS011;10908;50.690;4.400;2024-01-10T04:24:44;16.23;;;6.65;;
21492;SDS011;10908;50.690;4.400;2024-01-10T04:27:10;16.02;;;6.68;;
21492;SDS011;10908;50.690;4.400;2024-01-10T04:29:36;15.48;;;5.90;;
21492;SDS011;10908;50.690;4.400;2024-01-10T04:32:02;13.23;;;5.38;;
21492;SDS011;10908;50.690;4.400;2024-01-10T04:34:29;15.05;;;6.32;;
21492;SDS011;10908;50.690;4.400;2024-01-10T04:36:54;17.00;;;6.22;;
21492;SDS011;10908;50.690;4.400;2024-01-10T04:39:20;13.85;;;5.68;;
21492;SDS011;10908;50.690;4.400;2024-01-10T04:41:46;14.75;;;5.50;;
21492;SDS011;10908;50.690;4.400;2024-01-10T04:44:11;15.88;;;5.85;;
21492;SDS011;10908;50.690;4.400;2024-01-10T04:46:37;13.18;;;5.50;;
21492;SDS011;10908;50.690;4.400;2024-01-10T04:49:03;12.70;;;6.00;;
21492;SDS011;10908;50.690;4.400;2024-01-10T04:51:28;16.50;;;6.03;;
21492;SDS011;10908;50.690;4.400;2024-01-10T04:53:54;13.93;;;6.10;;
21492;SDS011;10908;50.690;4.400;2024-01-10T04:56:20;15.35;;;6.30;;
21492;SDS011;10908;50.690;4.400;2024-01-10T04:58:46;14.93;;;6.07;;
21492;SDS011;10908;50.690;4.400;2024-01-10T05:01:12;13.35;;;6.00;;
21492;SDS011;10908;50.690;4.400;2024-01-10T05:03:37;16.55;;;5.95;;
21492;SDS011;10908;50.690;4.400;2024-01-10T05:06:03;13.77;;;5.82;;
21492;SDS011;10908;50.690;4.400;2024-01-10T05:08:29;16.98;;;6.80;;
21492;SDS011;10908;50.690;4.400;2024-01-10T05:10:55;16.88;;;6.40;;
21492;SDS011;10908;50.690;4.400;2024-01-10T05:13:21;14.35;;;6.00;;
21492;SDS011;10908;50.690;4.400;2024-01-10T05:15:46;16.23;;;6.50;;
21492;SDS011;10908;50.690;4.400;2024-01-10T05:18:12;18.67;;;6.40;;
21492;SDS011;10908;50.690;4.400;2024-01-10T05:20:38;16.55;;;6.30;;
21492;SDS011;10908;50.690;4.400;2024-01-10T05:23:03;17.48;;;6.82;;
21492;SDS011;10908;50.690;4.400;2024-01-10T05:25:30;13.15;;;5.90;;
21492;SDS011;10908;50.690;4.400;2024-01-10T05:27:55;14.10;;;6.53;;
21492;SDS011;10908;50.690;4.400;2024-01-10T05:30:21;16.15;;;6.38;;
21492;SDS011;10908;50.690;4.400;2024-01-10T05:32:47;19.67;;;6.93;;
21492;SDS011;10908;50.690;4.400;2024-01-10T05:35:12;15.85;;;6.43;;
21492;SDS011;10908;50.690;4.400;2024-01-10T05:37:38;14.57;;;6.28;;
21492;SDS011;10908;50.690;4.400;2024-01-10T05:40:04;14.68;;;5.68;;
21492;SDS011;10908;50.690;4.400;2024-01-10T05:42:31;17.38;;;6.95;;
21492;SDS011;10908;50.690;4.400;2024-01-10T05:44:57;14.45;;;6.47;;
21492;SDS011;10908;50.690;4.400;2024-01-10T05:47:24;15.20;;;5.85;;
21492;SDS011;10908;50.690;4.400;2024-01-10T05:49:51;16.38;;;6.50;;
21492;SDS011;10908;50.690;4.400;2024-01-10T05:52:18;16.05;;;6.57;;
21492;SDS011;10908;50.690;4.400;2024-01-10T05:54:44;16.67;;;6.93;;
21492;SDS011;10908;50.690;4.400;2024-01-10T05:57:10;17.48;;;6.15;;
21492;SDS011;10908;50.690;4.400;2024-01-10T05:59:36;15.40;;;6.20;;
21492;SDS011;10908;50.690;4.400;2024-01-10T06:02:02;18.17;;;6.53;;
21492;SDS011;10908;50.690;4.400;2024-01-10T06:04:28;15.45;;;6.32;;
21492;SDS011;10908;50.690;4.400;2024-01-10T06:06:59;17.25;;;6.90;;
21492;SDS011;10908;50.690;4.400;2024-01-10T06:09:25;15.65;;;6.20;;
21492;SDS011;10908;50.690;4.400;2024-01-10T06:11:51;18.73;;;7.30;;
21492;SDS011;10908;50.690;4.400;2024-01-10T06:14:16;15.60;;;6.30;;
21492;SDS011;10908;50.690;4.400;2024-01-10T06:16:43;15.88;;;6.22;;
21492;SDS011;10908;50.690;4.400;2024-01-10T06:19:10;15.48;;;6.53;;
21492;SDS011;10908;50.690;4.400;2024-01-10T06:21:36;14.65;;;6.65;;
21492;SDS011;10908;50.690;4.400;2024-01-10T06:24:02;15.87;;;6.23;;
21492;SDS011;10908;50.690;4.400;2024-01-10T06:26:28;19.73;;;7.43;;
21492;SDS011;10908;50.690;4.400;2024-01-10T06:28:54;16.48;;;6.20;;
21492;SDS011;10908;50.690;4.400;2024-01-10T06:31:19;17.13;;;6.53;;
21492;SDS011;10908;50.690;4.400;2024-01-10T06:33:45;15.50;;;6.13;;
21492;SDS011;10908;50.690;4.400;2024-01-10T06:36:11;19.98;;;6.53;;
21492;SDS011;10908;50.690;4.400;2024-01-10T06:38:38;15.80;;;6.55;;
21492;SDS011;10908;50.690;4.400;2024-01-10T06:41:10;16.08;;;6.70;;
21492;SDS011;10908;50.690;4.400;2024-01-10T06:43:38;16.98;;;6.95;;
21492;SDS011;10908;50.690;4.400;2024-01-10T06:46:05;15.15;;;6.40;;
21492;SDS011;10908;50.690;4.400;2024-01-10T06:48:31;15.50;;;6.68;;
21492;SDS011;10908;50.690;4.400;2024-01-10T06:50:57;16.67;;;6.78;;
21492;SDS011;10908;50.690;4.400;2024-01-10T06:53:23;26.80;;;7.40;;
21492;SDS011;10908;50.690;4.400;2024-01-10T06:55:49;16.42;;;6.80;;
21492;SDS011;10908;50.690;4.400;2024-01-10T06:58:15;18.42;;;8.05;;
21492;SDS011;10908;50.690;4.400;2024-01-10T07:00:40;14.15;;;6.95;;
21492;SDS011;10908;50.690;4.400;2024-01-10T07:03:06;18.17;;;6.83;;
21492;SDS011;10908;50.690;4.400;2024-01-10T07:05:32;16.15;;;7.20;;
21492;SDS011;10908;50.690;4.400;2024-01-10T07:07:58;17.45;;;7.10;;
21492;SDS011;10908;50.690;4.400;2024-01-10T07:10:27;17.92;;;7.22;;
21492;SDS011;10908;50.690;4.400;2024-01-10T07:12:54;15.93;;;7.05;;
21492;SDS011;10908;50.690;4.400;2024-01-10T07:15:20;16.42;;;6.38;;
21492;SDS011;10908;50.690;4.400;2024-01-10T07:17:46;18.63;;;7.23;;
21492;SDS011;10908;50.690;4.400;2024-01-10T07:20:12;13.88;;;6.22;;
21492;SDS011;10908;50.690;4.400;2024-01-10T07:22:38;18.67;;;7.20;;
21492;SDS011;10908;50.690;4.400;2024-01-10T07:25:09;16.57;;;7.67;;
21492;SDS011;10908;50.690;4.400;2024-01-10T07:27:35;18.50;;;6.80;;
21492;SDS011;10908;50.690;4.400;2024-01-10T07:30:04;16.52;;;6.35;;
21492;SDS011;10908;50.690;4.400;2024-01-10T07:32:38;17.87;;;7.03;;
21492;SDS011;10908;50.690;4.400;2024-01-10T07:35:07;15.55;;;6.72;;
21492;SDS011;10908;50.690;4.400;2024-01-10T07:37:39;20.63;;;7.28;;
21492;SDS011;10908;50.690;4.400;2024-01-10T07:40:06;16.63;;;6.65;;
21492;SDS011;10908;50.690;4.400;2024-01-10T07:42:33;16.63;;;6.90;;
21492;SDS011;10908;50.690;4.400;2024-01-10T07:45:00;18.40;;;7.32;;
21492;SDS011;10908;50.690;4.400;2024-01-10T07:47:32;19.83;;;7.22;;
21492;SDS011;10908;50.690;4.400;2024-01-10T07:50:02;16.63;;;7.18;;
21492;SDS011;10908;50.690;4.400;2024-01-10T07:52:34;17.98;;;7.55;;
21492;SDS011;10908;50.690;4.400;2024-01-10T07:55:00;16.27;;;7.40;;
21492;SDS011;10908;50.690;4.400;2024-01-10T07:57:27;16.00;;;6.57;;
21492;SDS011;10908;50.690;4.400;2024-01-10T07:59:55;15.93;;;7.07;;
21492;SDS011;10908;50.690;4.400;2024-01-10T08:02:23;19.98;;;7.00;;
21492;SDS011;10908;50.690;4.400;2024-01-10T08:04:49;18.77;;;7.20;;
21492;SDS011;10908;50.690;4.400;2024-01-10T08:07:14;16.60;;;7.50;;
21492;SDS011;10908;50.690;4.400;2024-01-10T08:09:40;19.70;;;7.15;;
21492;SDS011;10908;50.690;4.400;2024-01-10T08:12:06;19.27;;;7.43;;
21492;SDS011;10908;50.690;4.400;2024-01-10T08:14:32;18.20;;;7.70;;
21492;SDS011;10908;50.690;4.400;2024-01-10T08:16:58;18.75;;;7.60;;
21492;SDS011;10908;50.690;4.400;2024-01-10T08:19:24;20.73;;;7.40;;
21492;SDS011;10908;50.690;4.400;2024-01-10T08:21:51;18.33;;;7.22;;
21492;SDS011;10908;50.690;4.400;2024-01-10T08:24:18;20.35;;;8.02;;
21492;SDS011;10908;50.690;4.400;2024-01-10T08:26:44;19.90;;;7.75;;
21492;SDS011;10908;50.690;4.400;2024-01-10T08:29:09;21.48;;;7.95;;
21492;SDS011;10908;50.690;4.400;2024-01-10T08:31:35;19.65;;;7.53;;
21492;SDS011;10908;50.690;4.400;2024-01-10T08:34:01;23.40;;;8.35;;
21492;SDS011;10908;50.690;4.400;2024-01-10T08:36:27;17.10;;;7.57;;
21492;SDS011;10908;50.690;4.400;2024-01-10T08:38:53;21.52;;;8.50;;
21492;SDS011;10908;50.690;4.400;2024-01-10T08:41:19;19.00;;;8.02;;
21492;SDS011;10908;50.690;4.400;2024-01-10T08:43:46;18.85;;;7.30;;
21492;SDS011;10908;50.690;4.400;2024-01-10T08:46:12;25.85;;;8.63;;
21492;SDS011;10908;50.690;4.400;2024-01-10T08:48:37;18.63;;;7.63;;
21492;SDS011;10908;50.690;4.400;2024-01-10T08:51:03;16.48;;;7.22;;
21492;SDS011;10908;50.690;4.400;2024-01-10T08:53:29;20.20;;;7.28;;
21492;SDS011;10908;50.690;4.400;2024-01-10T08:55:55;18.67;;;7.88;;
21492;SDS011;10908;50.690;4.400;2024-01-10T08:58:21;18.88;;;7.40;;
21492;SDS011;10908;50.690;4.400;2024-01-10T09:00:46;21.35;;;8.07;;
21492;SDS011;10908;50.690;4.400;2024-01-10T09:03:12;18.73;;;7.72;;
21492;SDS011;10908;50.690;4.400;2024-01-10T09:05:38;23.10;;;9.20;;
21492;SDS011;10908;50.690;4.400;2024-01-10T09:08:04;24.48;;;8.35;;
21492;SDS011;10908;50.690;4.400;2024-01-10T09:10:30;22.27;;;8.88;;
21492;SDS011;10908;50.690;4.400;2024-01-10T09:12:57;27.40;;;9.57;;
21492;SDS011;10908;50.690;4.400;2024-01-10T09:15:23;23.10;;;8.70;;
21492;SDS011;10908;50.690;4.400;2024-01-10T09:17:50;19.73;;;8.10;;
21492;SDS011;10908;50.690;4.400;2024-01-10T09:20:17;17.90;;;8.05;;
21492;SDS011;10908;50.690;4.400;2024-01-10T09:22:43;17.85;;;7.75;;
21492;SDS011;10908;50.690;4.400;2024-01-10T09:25:09;20.58;;;8.27;;
21492;SDS011;10908;50.690;4.400;2024-01-10T09:27:38;17.55;;;7.50;;
21492;SDS011;10908;50.690;4.400;2024-01-10T09:30:12;20.60;;;8.25;;
21492;SDS011;10908;50.690;4.400;2024-01-10T09:32:38;18.02;;;8.35;;
21492;SDS011;10908;50.690;4.400;2024-01-10T09:35:04;19.38;;;7.88;;
21492;SDS011;10908;50.690;4.400;2024-01-10T09:37:30;21.40;;;7.63;;
21492;SDS011;10908;50.690;4.400;2024-01-10T09:39:56;19.25;;;7.82;;
21492;SDS011;10908;50.690;4.400;2024-01-10T09:42:21;17.77;;;7.28;;
21492;SDS011;10908;50.690;4.400;2024-01-10T09:44:50;21.05;;;7.93;;
21492;SDS011;10908;50.690;4.400;2024-01-10T09:47:16;21.45;;;8.35;;
21492;SDS011;10908;50.690;4.400;2024-01-10T09:49:44;16.38;;;7.55;;
21492;SDS011;10908;50.690;4.400;2024-01-10T09:52:11;19.90;;;7.93;;
21492;SDS011;10908;50.690;4.400;2024-01-10T09:54:48;19.60;;;8.10;;
21492;SDS011;10908;50.690;4.400;2024-01-10T09:57:22;19.40;;;8.02;;
21492;SDS011;10908;50.690;4.400;2024-01-10T09:59:49;21.08;;;8.13;;
21492;SDS011;10908;50.690;4.400;2024-01-10T10:02:19;20.02;;;7.95;;
21492;SDS011;10908;50.690;4.400;2024-01-10T10:05:00;20.73;;;8.15;;
21492;SDS011;10908;50.690;4.400;2024-01-10T10:07:29;23.20;;;8.75;;
21492;SDS011;10908;50.690;4.400;2024-01-10T10:09:55;21.60;;;8.45;;
21492;SDS011;10908;50.690;4.400;2024-01-10T10:12:45;18.77;;;7.68;;
21492;SDS011;10908;50.690;4.400;2024-01-10T10:15:11;19.92;;;7.97;;
21492;SDS011;10908;50.690;4.400;2024-01-10T10:17:43;18.52;;;8.00;;
21492;SDS011;10908;50.690;4.400;2024-01-10T10:20:19;18.83;;;7.97;;
21492;SDS011;10908;50.690;4.400;2024-01-10T10:23:02;17.65;;;7.20;;
21492;SDS011;10908;50.690;4.400;2024-01-10T10:25:30;20.65;;;8.15;;
21492;SDS011;10908;50.690;4.400;2024-01-10T10:28:00;21.00;;;7.95;;
21492;SDS011;10908;50.690;4.400;2024-01-10T10:30:28;18.67;;;7.85;;
21492;SDS011;10908;50.690;4.400;2024-01-10T10:32:55;18.38;;;7.95;;
21492;SDS011;10908;50.690;4.400;2024-01-10T10:35:21;19.73;;;8.43;;
21492;SDS011;10908;50.690;4.400;2024-01-10T10:37:50;20.38;;;8.80;;
21492;SDS011;10908;50.690;4.400;2024-01-10T10:40:17;20.27;;;8.10;;
21492;SDS011;10908;50.690;4.400;2024-01-10T10:42:45;16.67;;;8.00;;
21492;SDS011;10908;50.690;4.400;2024-01-10T10:45:19;20.33;;;8.30;;
21492;SDS011;10908;50.690;4.400;2024-01-10T10:47:50;21.20;;;8.52;;
21492;SDS011;10908;50.690;4.400;2024-01-10T10:50:23;21.40;;;8.43;;
21492;SDS011;10908;50.690;4.400;2024-01-10T10:52:50;18.88;;;8.02;;
21492;SDS011;10908;50.690;4.400;2024-01-10T10:55:17;17.92;;;8.48;;
21492;SDS011;10908;50.690;4.400;2024-01-10T10:57:45;18.20;;;8.10;;
21492;SDS011;10908;50.690;4.400;2024-01-10T11:00:12;22.30;;;8.23;;
21492;SDS011;10908;50.690;4.400;2024-01-10T11:02:40;19.30;;;7.70;;
21492;SDS011;10908;50.690;4.400;2024-01-10T11:05:07;21.13;;;7.97;;
21492;SDS011;10908;50.690;4.400;2024-01-10T11:07:41;20.38;;;8.57;;
21492;SDS011;10908;50.690;4.400;2024-01-10T11:10:17;22.30;;;8.52;;
21492;SDS011;10908;50.690;4.400;2024-01-10T11:15:59;20.42;;;9.10;;
21492;SDS011;10908;50.690;4.400;2024-01-10T11:21:22;17.20;;;7.28;;
21492;SDS011;10908;50.690;4.400;2024-01-10T11:24:05;19.05;;;8.15;;
21492;SDS011;10908;50.690;4.400;2024-01-10T11:26:36;16.90;;;7.05;;
21492;SDS011;10908;50.690;4.400;2024-01-10T11:29:04;17.08;;;7.47;;
21492;SDS011;10908;50.690;4.400;2024-01-10T11:31:31;23.13;;;8.20;;
21492;SDS011;10908;50.690;4.400;2024-01-10T11:33:58;19.77;;;8.38;;
21492;SDS011;10908;50.690;4.400;2024-01-10T11:36:25;18.77;;;8.15;;
21492;SDS011;10908;50.690;4.400;2024-01-10T11:49:17;19.20;;;7.63;;
21492;SDS011;10908;50.690;4.400;2024-01-10T11:51:44;19.05;;;7.85;;
21492;SDS011;10908;50.690;4.400;2024-01-10T11:57:13;16.33;;;7.60;;
21492;SDS011;10908;50.690;4.400;2024-01-10T11:59:42;18.58;;;7.85;;
21492;SDS011;10908;50.690;4.400;2024-01-10T12:02:10;19.80;;;7.90;;
21492;SDS011;10908;50.690;4.400;2024-01-10T12:04:37;23.38;;;7.97;;
21492;SDS011;10908;50.690;4.400;2024-01-10T12:07:05;18.88;;;8.52;;
21492;SDS011;10908;50.690;4.400;2024-01-10T12:09:32;21.80;;;9.15;;
21492;SDS011;10908;50.690;4.400;2024-01-10T12:12:01;21.60;;;9.02;;
21492;SDS011;10908;50.690;4.400;2024-01-10T12:14:28;18.88;;;8.90;;
21492;SDS011;10908;50.690;4.400;2024-01-10T12:16:54;19.27;;;8.40;;
21492;SDS011;10908;50.690;4.400;2024-01-10T12:19:20;18.23;;;7.90;;
21492;SDS011;10908;50.690;4.400;2024-01-10T12:21:45;19.75;;;8.00;;
21492;SDS011;10908;50.690;4.400;2024-01-10T12:24:13;20.33;;;8.27;;
21492;SDS011;10908;50.690;4.400;2024-01-10T12:26:45;22.02;;;8.95;;
21492;SDS011;10908;50.690;4.400;2024-01-10T12:29:17;18.67;;;8.13;;
21492;SDS011;10908;50.690;4.400;2024-01-10T12:31:45;19.33;;;8.32;;
21492;SDS011;10908;50.690;4.400;2024-01-10T12:34:12;24.00;;;9.50;;
21492;SDS011;10908;50.690;4.400;2024-01-10T12:36:39;16.92;;;7.95;;
21492;SDS011;10908;50.690;4.400;2024-01-10T12:39:05;23.73;;;9.38;;
21492;SDS011;10908;50.690;4.400;2024-01-10T12:41:33;21.67;;;8.18;;
21492;SDS011;10908;50.690;4.400;2024-01-10T12:44:00;22.13;;;8.63;;
21492;SDS011;10908;50.690;4.400;2024-01-10T12:46:30;20.80;;;8.85;;
21492;SDS011;10908;50.690;4.400;2024-01-10T12:49:03;19.90;;;8.88;;
21492;SDS011;10908;50.690;4.400;2024-01-10T12:51:33;19.77;;;8.55;;
21492;SDS011;10908;50.690;4.400;2024-01-10T12:54:01;23.30;;;9.10;;
21492;SDS011;10908;50.690;4.400;2024-01-10T12:56:29;19.30;;;8.65;;
21492;SDS011;10908;50.690;4.400;2024-01-10T12:58:55;19.02;;;8.02;;
21492;SDS011;10908;50.690;4.400;2024-01-10T13:01:22;18.65;;;8.35;;
21492;SDS011;10908;50.690;4.400;2024-01-10T13:03:49;21.85;;;8.93;;
21492;SDS011;10908;50.690;4.400;2024-01-10T13:06:14;22.52;;;9.60;;
21492;SDS011;10908;50.690;4.400;2024-01-10T13:08:42;23.55;;;9.48;;
21492;SDS011;10908;50.690;4.400;2024-01-10T13:11:07;21.95;;;8.50;;
21492;SDS011;10908;50.690;4.400;2024-01-10T13:13:37;20.13;;;9.35;;
21492;SDS011;10908;50.690;4.400;2024-01-10T13:16:04;18.90;;;8.27;;
21492;SDS011;10908;50.690;4.400;2024-01-10T13:18:30;23.63;;;9.35;;
21492;SDS011;10908;50.690;4.400;2024-01-10T13:20:56;21.38;;;9.07;;
21492;SDS011;10908;50.690;4.400;2024-01-10T13:23:22;19.38;;;8.98;;
21492;SDS011;10908;50.690;4.400;2024-01-10T13:25:48;22.05;;;8.82;;
21492;SDS011;10908;50.690;4.400;2024-01-10T13:28:14;22.58;;;8.35;;
21492;SDS011;10908;50.690;4.400;2024-01-10T13:30:40;22.15;;;9.32;;
21492;SDS011;10908;50.690;4.400;2024-01-10T13:33:07;24.83;;;9.90;;
21492;SDS011;10908;50.690;4.400;2024-01-10T13:35:34;21.60;;;8.32;;
21492;SDS011;10908;50.690;4.400;2024-01-10T13:38:03;19.80;;;8.63;;
21492;SDS011;10908;50.690;4.400;2024-01-10T13:40:29;20.73;;;8.88;;
21492;SDS011;10908;50.690;4.400;2024-01-10T13:42:56;20.75;;;9.18;;
21492;SDS011;10908;50.690;4.400;2024-01-10T13:45:23;23.45;;;9.30;;
21492;SDS011;10908;50.690;4.400;2024-01-10T13:47:48;18.15;;;8.32;;
21492;SDS011;10908;50.690;4.400;2024-01-10T13:50:14;23.15;;;9.20;;
21492;SDS011;10908;50.690;4.400;2024-01-10T13:52:41;24.83;;;8.23;;
21492;SDS011;10908;50.690;4.400;2024-01-10T13:55:07;20.52;;;8.65;;
21492;SDS011;10908;50.690;4.400;2024-01-10T13:57:33;20.42;;;9.25;;
21492;SDS011;10908;50.690;4.400;2024-01-10T13:59:59;22.02;;;8.88;;
21492;SDS011;10908;50.690;4.400;2024-01-10T14:02:25;20.55;;;8.68;;
21492;SDS011;10908;50.690;4.400;2024-01-10T14:04:51;21.83;;;8.20;;
21492;SDS011;10908;50.690;4.400;2024-01-10T14:07:19;17.33;;;7.95;;
21492;SDS011;10908;50.690;4.400;2024-01-10T14:09:45;23.08;;;9.35;;
21492;SDS011;10908;50.690;4.400;2024-01-10T14:12:11;20.95;;;8.68;;
21492;SDS011;10908;50.690;4.400;2024-01-10T14:14:37;23.80;;;9.65;;
21492;SDS011;10908;50.690;4.400;2024-01-10T14:17:03;21.15;;;9.48;;
21492;SDS011;10908;50.690;4.400;2024-01-10T14:19:29;19.33;;;9.73;;
21492;SDS011;10908;50.690;4.400;2024-01-10T14:21:55;20.20;;;9.13;;
21492;SDS011;10908;50.690;4.400;2024-01-10T14:24:21;22.00;;;10.10;;
21492;SDS011;10908;50.690;4.400;2024-01-10T14:26:46;21.98;;;8.98;;
21492;SDS011;10908;50.690;4.400;2024-01-10T14:29:12;22.77;;;8.95;;
21492;SDS011;10908;50.690;4.400;2024-01-10T14:31:38;21.48;;;9.02;;
21492;SDS011;10908;50.690;4.400;2024-01-10T14:34:05;21.58;;;8.68;;
21492;SDS011;10908;50.690;4.400;2024-01-10T14:36:31;22.25;;;8.77;;
21492;SDS011;10908;50.690;4.400;2024-01-10T14:38:56;19.05;;;8.93;;
21492;SDS011;10908;50.690;4.400;2024-01-10T14:41:22;25.67;;;8.77;;
21492;SDS011;10908;50.690;4.400;2024-01-10T14:43:48;20.88;;;9.20;;
21492;SDS011;10908;50.690;4.400;2024-01-10T14:46:13;20.35;;;9.23;;
21492;SDS011;10908;50.690;4.400;2024-01-10T14:48:39;23.42;;;10.10;;
21492;SDS011;10908;50.690;4.400;2024-01-10T14:51:05;22.83;;;9.65;;